This is the latest recevied weather packets stored in our database for station/object G6LTT. If no packets are shown the sender has not sent any weather packets the latest 10 day(s).
| Time | Temp. | Humidity | Pressure | Rain* | Wind** | Luminosity | Snow |
|---|---|---|---|---|---|---|---|
| 1778304423 | 8.89° C | 87% | 1046.4 hPa | 0 mm | - | - | - |
| 1778303343 | 8.33° C | 88% | 1046.7 hPa | 0 mm | - | - | - |
| 1778302803 | 8.33° C | 89% | 1046.7 hPa | 0 mm | - | - | - |
| 1778297763 | 8.33° C | 88% | 1046.7 hPa | 0 mm | - | - | - |
| 1778294704 | 8.33° C | 86% | 1046.6 hPa | 0 mm | - | - | - |
| 1778293623 | 8.33° C | 86% | 1046.8 hPa | 0 mm | - | - | - |
| 1778292003 | 8.89° C | 84% | 1046.7 hPa | 0 mm | - | - | - |
| 1778291103 | 8.89° C | 83% | 1046.9 hPa | 0 mm | - | - | - |
| 1778288403 | 9.44° C | 82% | 1047 hPa | 0 mm | - | - | - |
| 1778286017 | 9.44° C | 81% | 1046.8 hPa | 0 mm | - | - | - |
| 1778282824 | 10° C | 79% | 1047.1 hPa | 0 mm | - | - | - |
| 1778281875 | 10° C | 77% | 1046.8 hPa | 0 mm | - | - | - |
| 1778281334 | 10.56° C | 76% | 1047.1 hPa | 0 mm | - | - | - |
| 1778257083 | 17.78° C | 47% | 1044.8 hPa | 0 mm | - | - | - |
| 1778254563 | 17.22° C | 49% | 1044.9 hPa | 0 mm | - | - | - |
| 1778250963 | 17.78° C | 49% | 1045 hPa | 0 mm | - | - | - |
| 1778243763 | 16.67° C | 51% | 1045.5 hPa | 0 mm | - | - | - |
| 1778242683 | 16.11° C | 52% | 1045.4 hPa | 0 mm | - | - | - |
| 1778239623 | 16.67° C | 48% | 1045.4 hPa | 0 mm | - | - | - |
| 1778236154 | 16.11° C | 50% | 1045.5 hPa | 0 mm | - | - | - |
| 1778229903 | 15° C | 63% | 1045.5 hPa | 0 mm | - | - | - |
| 1778227203 | 12.78° C | 77% | 1045.6 hPa | 0 mm | - | - | - |
| 1778224143 | 10.56° C | 87% | 1045.6 hPa | 0 mm | - | - | - |
| 1778222163 | 10° C | 87% | 1045.3 hPa | 0 mm | - | - | - |
| 1778221756 | 10° C | 87% | 1045.3 hPa | 0 mm | - | - | - |
* Rain latest hour (hover to see other rain measurements)
** Current wind speed in m/s (hover to see current wind gust speed)